createdAt,value
2019-01-27T00:01:04.817Z,6.15
2019-01-27T00:03:35.809Z,6.18
2019-01-27T00:06:02.973Z,6.44
2019-01-27T00:08:30.366Z,6.36
2019-01-27T00:10:57.529Z,6.44
2019-01-27T00:13:24.629Z,6.38
2019-01-27T00:15:51.857Z,6.28
2019-01-27T00:18:19.056Z,6.39
2019-01-27T00:20:46.724Z,6.16
2019-01-27T00:23:14.029Z,6.23
2019-01-27T00:25:41.476Z,6.17
2019-01-27T00:28:08.585Z,6.27
2019-01-27T00:30:36.160Z,6.26
2019-01-27T00:33:03.221Z,6.13
2019-01-27T00:35:30.954Z,6.13
2019-01-27T00:37:58.617Z,6.25
2019-01-27T00:40:25.776Z,6.19
2019-01-27T00:42:53.207Z,6.14
2019-01-27T00:45:20.416Z,6.25
2019-01-27T00:47:47.489Z,6.31
2019-01-27T00:50:15.896Z,6.21
2019-01-27T00:52:43.282Z,6.43
2019-01-27T00:55:13.563Z,6.14
2019-01-27T00:57:40.642Z,6.15
2019-01-27T01:00:11.171Z,6.08
2019-01-27T01:02:38.662Z,6.09
2019-01-27T01:05:06.886Z,6.28
2019-01-27T01:07:34.446Z,6.39
2019-01-27T01:10:02.927Z,6.58
2019-01-27T01:12:30.282Z,6.36
2019-01-27T01:14:57.641Z,6.34
2019-01-27T01:17:25.094Z,6.23
2019-01-27T01:19:52.271Z,6.20
2019-01-27T01:22:19.414Z,6.10
2019-01-27T01:24:46.585Z,6.25
2019-01-27T01:27:13.951Z,6.18
2019-01-27T01:29:41.394Z,6.22
2019-01-27T01:32:08.860Z,6.22
2019-01-27T01:34:35.934Z,6.27
2019-01-27T01:37:03.039Z,6.20
2019-01-27T01:39:30.223Z,6.57
2019-01-27T01:41:57.353Z,6.16
2019-01-27T01:44:24.422Z,6.18
2019-01-27T01:46:51.553Z,6.23
2019-01-27T01:49:18.614Z,6.41
2019-01-27T01:51:45.701Z,6.22
2019-01-27T01:54:12.872Z,6.25
2019-01-27T01:56:42.266Z,6.39
2019-01-27T01:59:09.438Z,6.10
2019-01-27T02:01:36.824Z,6.04
2019-01-27T02:04:04.416Z,6.21
2019-01-27T02:06:32.793Z,6.43
2019-01-27T02:09:00.152Z,6.39
2019-01-27T02:11:27.637Z,6.37
2019-01-27T02:13:55.588Z,6.14
2019-01-27T02:16:22.664Z,6.24
2019-01-27T02:18:50.076Z,6.29
2019-01-27T02:21:17.533Z,6.55
2019-01-27T02:23:46.402Z,6.18
2019-01-27T02:26:13.693Z,6.67
2019-01-27T02:28:40.880Z,6.44
2019-01-27T02:31:08.335Z,6.32
2019-01-27T02:33:35.398Z,6.20
2019-01-27T02:36:02.649Z,6.27
2019-01-27T02:38:29.844Z,6.26
2019-01-27T02:40:56.938Z,6.36
2019-01-27T02:43:24.005Z,6.14
2019-01-27T02:45:51.535Z,6.11
2019-01-27T02:48:19.070Z,6.28
2019-01-27T02:50:46.263Z,6.14
2019-01-27T02:53:13.338Z,6.05
2019-01-27T02:55:40.525Z,6.19
2019-01-27T02:58:07.586Z,6.29
2019-01-27T03:00:35.439Z,6.33
2019-01-27T03:03:04.327Z,6.50
2019-01-27T03:05:51.086Z,6.47
2019-01-27T03:08:20.003Z,6.37
2019-01-27T03:10:47.102Z,6.38
2019-01-27T03:13:14.165Z,6.45
2019-01-27T03:15:41.388Z,6.33
2019-01-27T03:18:08.472Z,6.34
2019-01-27T03:20:35.860Z,6.70
2019-01-27T03:23:03.623Z,6.48
2019-01-27T03:25:31.694Z,6.34
2019-01-27T03:27:59.038Z,6.45
2019-01-27T03:30:26.114Z,6.45
2019-01-27T03:32:53.707Z,6.58
2019-01-27T03:35:20.798Z,6.59
2019-01-27T03:37:48.562Z,6.58
2019-01-27T03:40:16.023Z,6.51
2019-01-27T03:42:43.782Z,6.70
2019-01-27T03:45:12.760Z,6.67
2019-01-27T03:47:39.964Z,6.68
2019-01-27T03:50:09.625Z,6.62
2019-01-27T03:52:36.809Z,6.72
2019-01-27T03:55:08.010Z,6.67
2019-01-27T03:57:35.161Z,6.67
2019-01-27T04:00:03.023Z,6.50
2019-01-27T04:02:30.190Z,6.82
2019-01-27T04:04:57.377Z,6.49
2019-01-27T04:07:24.445Z,6.90
2019-01-27T04:09:51.530Z,6.88
2019-01-27T04:12:18.604Z,6.37
2019-01-27T04:14:45.736Z,6.43
2019-01-27T04:17:15.250Z,6.58
2019-01-27T04:19:42.718Z,6.51
2019-01-27T04:22:09.786Z,6.55
2019-01-27T04:24:39.050Z,6.61
2019-01-27T04:27:06.503Z,6.64
2019-01-27T04:29:35.322Z,6.31
2019-01-27T04:32:02.699Z,6.43
2019-01-27T04:34:31.239Z,6.64
2019-01-27T04:36:58.419Z,6.68
2019-01-27T04:39:25.510Z,6.75
2019-01-27T04:41:53.679Z,6.77
2019-01-27T04:44:22.128Z,6.46
2019-01-27T04:46:49.843Z,6.44
2019-01-27T04:49:17.712Z,6.39
2019-01-27T04:51:45.166Z,6.75
2019-01-27T04:54:13.508Z,6.35
2019-01-27T04:56:40.838Z,6.65
2019-01-27T04:59:08.230Z,6.57
2019-01-27T05:01:36.014Z,6.40
2019-01-27T05:04:16.386Z,6.33
2019-01-27T05:06:43.936Z,6.38
2019-01-27T05:09:11.016Z,6.28
2019-01-27T05:11:38.748Z,6.44
2019-01-27T05:14:06.245Z,6.56
2019-01-27T05:16:34.895Z,6.38
2019-01-27T05:19:02.446Z,6.58
2019-01-27T05:21:29.613Z,6.44
2019-01-27T05:23:57.361Z,6.59
2019-01-27T05:26:24.776Z,6.77
2019-01-27T05:28:52.485Z,6.55
2019-01-27T05:31:19.660Z,6.50
2019-01-27T05:33:47.093Z,6.59
2019-01-27T05:36:14.265Z,6.55
2019-01-27T05:38:41.382Z,6.64
2019-01-27T05:41:09.514Z,6.30
2019-01-27T05:43:36.699Z,6.38
2019-01-27T05:46:04.170Z,6.30
2019-01-27T05:48:31.364Z,5.95
2019-01-27T05:50:58.533Z,6.14
2019-01-27T05:53:25.969Z,6.24
2019-01-27T05:55:53.903Z,6.24
2019-01-27T05:58:21.354Z,6.35
2019-01-27T06:00:48.549Z,6.52
2019-01-27T06:03:15.917Z,6.14
2019-01-27T06:05:43.305Z,6.65
2019-01-27T06:08:12.096Z,6.11
2019-01-27T06:10:39.441Z,6.30
2019-01-27T06:13:07.013Z,6.18
2019-01-27T06:15:34.981Z,6.30
2019-01-27T06:18:02.433Z,6.22
2019-01-27T06:20:29.889Z,6.05
2019-01-27T06:22:57.757Z,6.17
2019-01-27T06:25:26.270Z,6.08
2019-01-27T06:27:54.105Z,6.30
2019-01-27T06:30:23.098Z,6.03
2019-01-27T06:33:06.083Z,6.50
2019-01-27T06:35:33.473Z,6.43
2019-01-27T06:38:01.873Z,6.15
2019-01-27T06:40:31.072Z,6.44
2019-01-27T06:42:58.526Z,6.31
2019-01-27T06:45:25.599Z,6.26
2019-01-27T06:47:52.668Z,6.23
2019-01-27T06:50:20.471Z,6.33
2019-01-27T06:52:49.374Z,6.08
2019-01-27T06:55:17.593Z,6.22
2019-01-27T06:57:44.847Z,6.09
2019-01-27T07:00:35.116Z,5.99
2019-01-27T07:03:17.403Z,5.96
2019-01-27T07:06:05.422Z,5.91
2019-01-27T07:08:52.381Z,5.84
2019-01-27T07:11:34.847Z,5.92
2019-01-27T07:14:22.066Z,5.96
2019-01-27T07:17:15.060Z,6.07
2019-01-27T07:20:00.673Z,6.02
2019-01-27T07:22:59.778Z,5.93
2019-01-27T07:25:45.906Z,5.93
2019-01-27T07:28:38.730Z,5.59
2019-01-27T07:31:38.883Z,5.70
2019-01-27T07:34:26.106Z,5.85
2019-01-27T07:37:12.082Z,5.81
2019-01-27T07:39:59.198Z,5.88
2019-01-27T07:42:35.366Z,5.89
2019-01-27T07:45:29.261Z,5.72
2019-01-27T07:48:05.265Z,6.03
2019-01-27T07:50:45.857Z,5.64
2019-01-27T07:53:32.653Z,5.71
2019-01-27T07:56:19.423Z,5.59
2019-01-27T07:59:06.166Z,5.57
2019-01-27T08:02:11.292Z,5.62
2019-01-27T08:05:02.759Z,5.71
2019-01-27T08:07:44.955Z,5.60
2019-01-27T08:10:41.080Z,5.75
2019-01-27T08:13:37.103Z,5.79
2019-01-27T08:16:33.357Z,5.93
2019-01-27T08:19:22.667Z,5.86
2019-01-27T08:21:56.413Z,5.94
2019-01-27T08:24:59.195Z,6.31
2019-01-27T08:27:37.502Z,6.09
2019-01-27T08:30:27.496Z,6.09
2019-01-27T08:33:17.583Z,5.94
2019-01-27T08:36:07.357Z,6.31
2019-01-27T08:38:57.246Z,6.32
2019-01-27T08:41:47.819Z,5.98
2019-01-27T08:44:37.162Z,6.29
2019-01-27T08:47:04.240Z,6.07
2019-01-27T08:49:33.337Z,6.01
2019-01-27T08:52:00.941Z,6.27
2019-01-27T08:54:28.117Z,6.13
2019-01-27T08:56:55.173Z,6.37
2019-01-27T08:59:22.262Z,6.21
2019-01-27T09:02:07.584Z,6.17
2019-01-27T09:04:48.899Z,6.14
2019-01-27T09:07:46.176Z,6.28
2019-01-27T09:10:26.635Z,6.19
2019-01-27T09:13:15.558Z,6.30
2019-01-27T09:16:03.225Z,6.00
2019-01-27T09:18:41.843Z,6.14
2019-01-27T09:21:24.044Z,6.37
2019-01-27T09:24:09.936Z,6.44
2019-01-27T09:26:43.310Z,6.46
2019-01-27T09:29:31.840Z,6.18
2019-01-27T09:32:22.152Z,6.36
2019-01-27T09:35:03.927Z,6.54
2019-01-27T09:37:56.713Z,6.38
2019-01-27T09:40:58.734Z,6.40
2019-01-27T09:43:48.447Z,6.37
2019-01-27T09:46:35.473Z,6.52
2019-01-27T09:49:14.174Z,6.38
2019-01-27T09:52:00.783Z,6.28
2019-01-27T09:54:37.661Z,6.44
2019-01-27T09:57:12.157Z,6.56
2019-01-27T09:59:50.827Z,6.58
2019-01-27T10:02:40.915Z,6.53
2019-01-27T10:05:24.040Z,6.46
2019-01-27T10:08:03.061Z,6.20
2019-01-27T10:11:00.012Z,6.44
2019-01-27T10:13:40.154Z,6.75
2019-01-27T10:16:25.857Z,6.58
2019-01-27T10:19:21.667Z,6.62
2019-01-27T10:21:54.102Z,6.46
2019-01-27T10:24:42.587Z,6.53
2019-01-27T10:27:34.277Z,6.66
2019-01-27T10:30:24.915Z,6.48
2019-01-27T10:33:08.102Z,6.43
2019-01-27T10:36:10.218Z,6.72
2019-01-27T10:38:59.595Z,6.24
2019-01-27T10:41:33.263Z,6.54
2019-01-27T10:44:06.541Z,6.74
2019-01-27T10:46:53.263Z,6.79
2019-01-27T10:49:48.732Z,6.71
2019-01-27T10:52:42.843Z,6.23
2019-01-27T10:55:30.697Z,6.62
2019-01-27T10:58:19.180Z,6.68
2019-01-27T11:01:05.954Z,6.86
2019-01-27T11:03:57.210Z,6.84
2019-01-27T11:06:43.889Z,6.93
2019-01-27T11:09:28.874Z,6.90
2019-01-27T11:12:21.985Z,6.77
2019-01-27T11:15:07.333Z,6.88
2019-01-27T11:18:10.307Z,7.14
2019-01-27T11:21:06.335Z,7.55
2019-01-27T11:23:52.986Z,7.10
2019-01-27T11:26:35.157Z,6.86
2019-01-27T11:29:36.950Z,6.93
2019-01-27T11:32:42.079Z,6.91
2019-01-27T11:35:27.602Z,7.18
2019-01-27T11:38:32.574Z,6.90
2019-01-27T11:41:21.995Z,6.77
2019-01-27T11:44:01.643Z,6.86
2019-01-27T11:46:57.455Z,6.86
2019-01-27T11:49:44.514Z,6.85
2019-01-27T11:52:31.439Z,6.90
2019-01-27T11:54:58.717Z,7.25
2019-01-27T11:57:26.737Z,7.16
2019-01-27T11:59:54.290Z,6.94
2019-01-27T12:02:21.808Z,7.05
2019-01-27T12:04:48.884Z,7.12
2019-01-27T12:07:15.963Z,7.01
2019-01-27T12:09:43.105Z,6.97
2019-01-27T12:12:10.561Z,6.92
2019-01-27T12:14:37.631Z,7.11
2019-01-27T12:17:04.782Z,7.07
2019-01-27T12:19:32.931Z,7.03
2019-01-27T12:22:00.130Z,7.20
2019-01-27T12:24:28.319Z,7.04
2019-01-27T12:26:55.395Z,6.84
2019-01-27T12:29:22.691Z,7.19
2019-01-27T12:31:49.782Z,6.94
2019-01-27T12:34:17.963Z,7.06
2019-01-27T12:36:45.448Z,6.88
2019-01-27T12:39:12.524Z,6.95
2019-01-27T12:41:39.868Z,7.12
2019-01-27T12:44:08.032Z,7.36
2019-01-27T12:46:35.336Z,7.00
2019-01-27T12:49:04.453Z,7.07
2019-01-27T12:51:31.560Z,7.04
2019-01-27T12:53:58.951Z,6.85
2019-01-27T12:56:26.041Z,7.06
2019-01-27T12:58:53.118Z,7.20
2019-01-27T13:01:20.242Z,7.25
2019-01-27T13:03:47.309Z,7.23
2019-01-27T13:06:14.846Z,7.41
2019-01-27T13:08:41.922Z,7.52
2019-01-27T13:11:09.389Z,7.42
2019-01-27T13:13:39.476Z,7.33
2019-01-27T13:16:06.983Z,7.31
2019-01-27T13:18:34.335Z,7.16
2019-01-27T13:21:01.419Z,7.41
2019-01-27T13:23:28.943Z,7.52
2019-01-27T13:25:56.338Z,7.73
2019-01-27T13:28:25.601Z,7.23
2019-01-27T13:30:52.678Z,7.51
2019-01-27T13:33:20.108Z,7.75
2019-01-27T13:35:48.274Z,7.35
2019-01-27T13:38:16.511Z,7.20
2019-01-27T13:40:43.627Z,7.28
2019-01-27T13:43:12.042Z,7.22
2019-01-27T13:45:39.279Z,7.42
2019-01-27T13:48:07.437Z,7.16
2019-01-27T13:50:34.759Z,7.25
2019-01-27T13:53:01.849Z,7.43
2019-01-27T13:55:29.404Z,7.30
2019-01-27T13:57:56.504Z,7.18
2019-01-27T14:00:26.030Z,7.21
2019-01-27T14:02:53.113Z,7.13
2019-01-27T14:05:20.266Z,7.12
2019-01-27T14:07:47.351Z,7.34
2019-01-27T14:10:16.798Z,7.13
2019-01-27T14:12:43.922Z,7.22
2019-01-27T14:15:14.348Z,7.16
2019-01-27T14:17:43.264Z,7.12
2019-01-27T14:20:12.315Z,7.42
2019-01-27T14:22:40.546Z,7.02
2019-01-27T14:25:09.209Z,7.44
2019-01-27T14:27:36.398Z,7.26
2019-01-27T14:30:05.425Z,7.33
2019-01-27T14:32:32.912Z,7.24
2019-01-27T14:35:00.334Z,7.31
2019-01-27T14:37:28.109Z,7.18
2019-01-27T14:39:55.554Z,7.20
2019-01-27T14:42:22.593Z,7.28
2019-01-27T14:44:50.134Z,7.42
2019-01-27T14:47:17.172Z,7.61
2019-01-27T14:49:45.093Z,7.48
2019-01-27T14:52:12.139Z,7.40
2019-01-27T14:54:39.213Z,7.26
2019-01-27T14:57:06.282Z,7.38
2019-01-27T14:59:33.697Z,7.39
2019-01-27T15:02:01.938Z,7.31
2019-01-27T15:04:29.579Z,7.39
2019-01-27T15:06:59.149Z,7.24
2019-01-27T15:09:26.313Z,7.20
2019-01-27T15:11:53.351Z,7.06
2019-01-27T15:14:20.995Z,7.24
2019-01-27T15:16:48.185Z,7.22
2019-01-27T15:19:15.257Z,7.16
2019-01-27T15:21:44.482Z,7.15
2019-01-27T15:24:12.142Z,7.15
2019-01-27T15:26:39.514Z,7.08
2019-01-27T15:29:07.120Z,7.51
2019-01-27T15:31:34.927Z,7.16
2019-01-27T15:34:01.999Z,7.16
2019-01-27T15:36:31.270Z,6.99
2019-01-27T15:38:58.806Z,7.08
2019-01-27T15:41:26.876Z,7.09
2019-01-27T15:43:54.334Z,7.26
2019-01-27T15:46:21.409Z,7.37
2019-01-27T15:48:48.485Z,7.18
2019-01-27T15:51:15.566Z,7.23
2019-01-27T15:53:43.001Z,7.17
2019-01-27T15:56:10.539Z,7.10
2019-01-27T15:58:37.997Z,7.48
2019-01-27T16:01:05.087Z,7.50
2019-01-27T16:03:35.067Z,7.26
2019-01-27T16:06:02.746Z,7.25
2019-01-27T16:08:29.942Z,7.16
2019-01-27T16:10:57.303Z,7.18
2019-01-27T16:13:24.687Z,7.14
2019-01-27T16:15:51.769Z,7.03
2019-01-27T16:18:18.831Z,7.03
2019-01-27T16:20:46.718Z,7.10
2019-01-27T16:23:32.407Z,6.96
2019-01-27T16:26:00.987Z,6.90
2019-01-27T16:28:29.421Z,6.99
2019-01-27T16:31:16.305Z,7.02
2019-01-27T16:34:02.270Z,6.94
2019-01-27T16:36:29.370Z,7.23
2019-01-27T16:38:57.099Z,6.99
2019-01-27T16:41:24.183Z,6.97
2019-01-27T16:43:52.310Z,6.95
2019-01-27T16:46:19.922Z,7.04
2019-01-27T16:48:46.989Z,6.91
2019-01-27T16:51:14.363Z,7.13
2019-01-27T16:53:42.235Z,7.16
2019-01-27T16:56:09.336Z,7.11
2019-01-27T16:58:36.395Z,7.10
2019-01-27T17:01:04.547Z,7.13
2019-01-27T17:03:31.593Z,7.06
2019-01-27T17:05:59.736Z,7.15
2019-01-27T17:08:26.925Z,7.59
2019-01-27T17:10:54.234Z,7.61
2019-01-27T17:13:21.306Z,7.37
2019-01-27T17:15:48.680Z,7.05
2019-01-27T17:18:16.801Z,7.20
2019-01-27T17:20:43.966Z,7.14
2019-01-27T17:23:11.055Z,7.13
2019-01-27T17:25:38.313Z,7.26
2019-01-27T17:28:05.534Z,7.20
2019-01-27T17:30:32.693Z,7.33
2019-01-27T17:33:00.199Z,7.20
2019-01-27T17:35:27.251Z,7.11
2019-01-27T17:37:54.636Z,7.06
2019-01-27T17:40:23.502Z,7.12
2019-01-27T17:42:50.700Z,7.13
2019-01-27T17:45:17.784Z,7.14
2019-01-27T17:47:45.473Z,6.94
2019-01-27T17:50:14.256Z,6.98
2019-01-27T17:52:41.370Z,6.92
2019-01-27T17:55:12.182Z,7.20
2019-01-27T17:57:54.943Z,7.01
2019-01-27T18:00:54.152Z,7.12
2019-01-27T18:03:31.918Z,6.99
2019-01-27T18:06:06.128Z,6.94
2019-01-27T18:08:43.746Z,6.95
2019-01-27T18:11:27.671Z,7.14
2019-01-27T18:13:59.652Z,7.07
2019-01-27T18:16:26.719Z,7.38
2019-01-27T18:18:53.795Z,6.94
2019-01-27T18:21:20.842Z,7.17
2019-01-27T18:23:48.572Z,7.25
2019-01-27T18:26:17.403Z,7.08
2019-01-27T18:28:45.018Z,7.31
2019-01-27T18:31:12.431Z,7.23
2019-01-27T18:33:39.498Z,7.30
2019-01-27T18:36:06.554Z,7.13
2019-01-27T18:38:33.618Z,7.02
2019-01-27T18:41:01.074Z,6.96
2019-01-27T18:43:28.477Z,7.05
2019-01-27T18:45:55.546Z,7.16
2019-01-27T18:48:22.602Z,7.05
2019-01-27T18:50:49.998Z,7.26
2019-01-27T18:53:36.655Z,7.21
2019-01-27T18:56:14.679Z,6.85
2019-01-27T18:59:13.113Z,7.22
2019-01-27T19:01:58.931Z,6.96
2019-01-27T19:04:33.769Z,7.26
2019-01-27T19:07:19.124Z,7.19
2019-01-27T19:10:08.401Z,7.18
2019-01-27T19:12:52.073Z,7.21
2019-01-27T19:15:37.597Z,7.04
2019-01-27T19:18:26.913Z,7.24
2019-01-27T19:21:07.869Z,7.09
2019-01-27T19:23:54.524Z,6.91
2019-01-27T19:26:41.223Z,7.21
2019-01-27T19:29:31.730Z,7.16
2019-01-27T19:32:24.698Z,7.06
2019-01-27T19:35:09.365Z,7.08
2019-01-27T19:37:55.095Z,7.05
2019-01-27T19:40:31.867Z,6.86
2019-01-27T19:43:15.380Z,6.88
2019-01-27T19:46:00.757Z,6.82
2019-01-27T19:48:46.369Z,6.67
2019-01-27T19:51:22.919Z,6.69
2019-01-27T19:54:09.709Z,6.93
2019-01-27T19:57:05.465Z,6.71
2019-01-27T19:59:56.419Z,6.89
2019-01-27T20:02:40.195Z,6.92
2019-01-27T20:05:16.943Z,6.98
2019-01-27T20:07:53.996Z,7.02
2019-01-27T20:10:39.565Z,6.82
2019-01-27T20:13:14.350Z,6.71
2019-01-27T20:15:58.631Z,6.65
2019-01-27T20:18:51.293Z,6.67
2019-01-27T20:21:41.229Z,6.61
2019-01-27T20:24:20.829Z,6.68
2019-01-27T20:27:13.808Z,6.88
2019-01-27T20:30:04.169Z,6.59
2019-01-27T20:32:49.917Z,6.69
2019-01-27T20:35:35.377Z,6.74
2019-01-27T20:38:26.624Z,6.94
2019-01-27T20:41:25.610Z,6.42
2019-01-27T20:44:28.758Z,6.62
2019-01-27T20:47:06.183Z,6.68
2019-01-27T20:49:56.685Z,6.68
2019-01-27T20:52:52.227Z,6.56
2019-01-27T20:55:48.779Z,6.57
2019-01-27T20:58:34.453Z,6.57
2019-01-27T21:01:25.567Z,6.57
2019-01-27T21:04:15.270Z,6.70
2019-01-27T21:06:55.154Z,6.86
2019-01-27T21:09:41.931Z,6.62
2019-01-27T21:12:33.010Z,6.31
2019-01-27T21:15:10.172Z,6.40
2019-01-27T21:18:03.462Z,6.34
2019-01-27T21:20:31.162Z,6.26
2019-01-27T21:22:58.298Z,6.02
2019-01-27T21:25:25.393Z,6.02
2019-01-27T21:27:52.978Z,5.95
2019-01-27T21:30:20.657Z,6.06
2019-01-27T21:32:47.777Z,5.99
2019-01-27T21:35:15.218Z,5.80
2019-01-27T21:37:42.559Z,5.80
2019-01-27T21:40:13.576Z,5.93
2019-01-27T21:42:47.357Z,5.73
2019-01-27T21:45:12.599Z,5.82
2019-01-27T21:47:40.109Z,5.91
2019-01-27T21:50:10.842Z,5.87
2019-01-27T21:52:39.103Z,5.85
2019-01-27T21:55:06.529Z,5.77
2019-01-27T21:57:33.961Z,5.86
2019-01-27T22:00:01.118Z,6.05
2019-01-27T22:02:28.594Z,5.82
2019-01-27T22:04:56.330Z,5.73
2019-01-27T22:07:25.537Z,5.62
2019-01-27T22:09:53.318Z,5.47
2019-01-27T22:12:20.815Z,5.71
2019-01-27T22:14:49.202Z,5.52
2019-01-27T22:17:17.357Z,5.58
2019-01-27T22:19:44.727Z,5.52
2019-01-27T22:22:11.806Z,5.57
2019-01-27T22:24:39.335Z,5.64
2019-01-27T22:27:07.203Z,5.50
2019-01-27T22:29:37.062Z,5.54
2019-01-27T22:32:04.132Z,5.64
2019-01-27T22:34:32.136Z,5.47
2019-01-27T22:36:59.217Z,5.52
2019-01-27T22:39:28.081Z,5.55
2019-01-27T22:41:55.480Z,5.40
2019-01-27T22:44:24.109Z,5.44
2019-01-27T22:46:51.281Z,5.40
2019-01-27T22:49:18.719Z,5.29
2019-01-27T22:51:45.799Z,5.34
2019-01-27T22:54:14.110Z,5.37
2019-01-27T22:56:41.902Z,5.27
2019-01-27T22:59:09.566Z,5.18
2019-01-27T23:01:36.921Z,4.90
2019-01-27T23:04:05.502Z,5.17
2019-01-27T23:06:34.086Z,5.16
2019-01-27T23:09:04.045Z,4.94
2019-01-27T23:11:33.839Z,4.92
2019-01-27T23:14:01.195Z,4.87
2019-01-27T23:16:28.313Z,4.80
2019-01-27T23:18:55.669Z,4.70
2019-01-27T23:21:22.734Z,4.68
2019-01-27T23:23:50.380Z,4.77
2019-01-27T23:26:18.140Z,4.69
2019-01-27T23:28:45.607Z,4.39
2019-01-27T23:31:13.725Z,4.47
2019-01-27T23:33:41.130Z,4.52
2019-01-27T23:36:08.488Z,4.37
2019-01-27T23:38:35.914Z,4.48
2019-01-27T23:41:04.727Z,4.25
2019-01-27T23:43:31.805Z,4.32
2019-01-27T23:45:59.231Z,4.29
2019-01-27T23:48:26.321Z,4.25
2019-01-27T23:50:53.411Z,4.11
2019-01-27T23:53:21.189Z,4.14
2019-01-27T23:55:48.243Z,4.01
2019-01-27T23:58:16.008Z,4.24
